sensor_id;sensor_type;location;lat;lon;timestamp;P1;durP1;ratioP1;P2;durP2;ratioP2
59872;SDS011;50750;51.636;4.948;2022-07-06T00:00:06;2.90;;;1.00;;
59872;SDS011;50750;51.636;4.948;2022-07-06T00:02:53;1.80;;;1.00;;
59872;SDS011;50750;51.636;4.948;2022-07-06T00:05:19;2.00;;;0.90;;
59872;SDS011;50750;51.636;4.948;2022-07-06T00:07:46;2.00;;;1.00;;
59872;SDS011;50750;51.636;4.948;2022-07-06T00:10:12;2.20;;;1.00;;
59872;SDS011;50750;51.636;4.948;2022-07-06T00:12:39;2.50;;;1.10;;
59872;SDS011;50750;51.636;4.948;2022-07-06T00:15:06;2.70;;;1.10;;
59872;SDS011;50750;51.636;4.948;2022-07-06T00:17:33;1.60;;;0.90;;
59872;SDS011;50750;51.636;4.948;2022-07-06T00:19:59;2.80;;;1.10;;
59872;SDS011;50750;51.636;4.948;2022-07-06T00:22:26;2.20;;;1.00;;
59872;SDS011;50750;51.636;4.948;2022-07-06T00:24:53;1.80;;;1.00;;
59872;SDS011;50750;51.636;4.948;2022-07-06T00:27:19;1.90;;;1.00;;
59872;SDS011;50750;51.636;4.948;2022-07-06T00:29:46;1.90;;;0.90;;
59872;SDS011;50750;51.636;4.948;2022-07-06T00:32:12;2.70;;;1.00;;
59872;SDS011;50750;51.636;4.948;2022-07-06T00:34:39;3.50;;;1.30;;
59872;SDS011;50750;51.636;4.948;2022-07-06T00:37:06;1.90;;;0.90;;
59872;SDS011;50750;51.636;4.948;2022-07-06T00:39:33;1.90;;;1.10;;
59872;SDS011;50750;51.636;4.948;2022-07-06T00:42:00;1.80;;;1.00;;
59872;SDS011;50750;51.636;4.948;2022-07-06T00:44:27;2.60;;;1.00;;
59872;SDS011;50750;51.636;4.948;2022-07-06T00:46:55;1.90;;;1.10;;
59872;SDS011;50750;51.636;4.948;2022-07-06T00:49:21;2.30;;;1.20;;
59872;SDS011;50750;51.636;4.948;2022-07-06T00:52:06;2.00;;;1.00;;
59872;SDS011;50750;51.636;4.948;2022-07-06T00:54:33;1.80;;;1.00;;
59872;SDS011;50750;51.636;4.948;2022-07-06T00:57:01;1.60;;;0.90;;
59872;SDS011;50750;51.636;4.948;2022-07-06T00:59:28;2.30;;;1.00;;
59872;SDS011;50750;51.636;4.948;2022-07-06T01:01:55;2.00;;;1.00;;
59872;SDS011;50750;51.636;4.948;2022-07-06T01:04:21;2.70;;;1.00;;
59872;SDS011;50750;51.636;4.948;2022-07-06T01:06:48;2.10;;;1.00;;
59872;SDS011;50750;51.636;4.948;2022-07-06T01:09:14;1.80;;;1.00;;
59872;SDS011;50750;51.636;4.948;2022-07-06T01:11:42;2.00;;;1.00;;
59872;SDS011;50750;51.636;4.948;2022-07-06T01:14:09;2.20;;;1.00;;
59872;SDS011;50750;51.636;4.948;2022-07-06T01:16:37;2.40;;;1.10;;
59872;SDS011;50750;51.636;4.948;2022-07-06T01:19:04;2.10;;;0.90;;
59872;SDS011;50750;51.636;4.948;2022-07-06T01:21:31;1.70;;;0.90;;
59872;SDS011;50750;51.636;4.948;2022-07-06T01:23:57;2.30;;;1.10;;
59872;SDS011;50750;51.636;4.948;2022-07-06T01:26:24;1.60;;;0.80;;
59872;SDS011;50750;51.636;4.948;2022-07-06T01:28:51;1.60;;;0.90;;
59872;SDS011;50750;51.636;4.948;2022-07-06T01:31:19;2.50;;;1.00;;
59872;SDS011;50750;51.636;4.948;2022-07-06T01:33:49;2.20;;;1.00;;
59872;SDS011;50750;51.636;4.948;2022-07-06T01:36:17;1.90;;;1.00;;
59872;SDS011;50750;51.636;4.948;2022-07-06T01:38:50;2.80;;;1.00;;
59872;SDS011;50750;51.636;4.948;2022-07-06T01:41:18;2.30;;;0.90;;
59872;SDS011;50750;51.636;4.948;2022-07-06T01:43:46;2.00;;;0.90;;
59872;SDS011;50750;51.636;4.948;2022-07-06T01:46:13;1.90;;;1.20;;
59872;SDS011;50750;51.636;4.948;2022-07-06T01:48:39;3.60;;;1.20;;
59872;SDS011;50750;51.636;4.948;2022-07-06T01:51:07;2.50;;;1.10;;
59872;SDS011;50750;51.636;4.948;2022-07-06T01:53:34;2.00;;;1.00;;
59872;SDS011;50750;51.636;4.948;2022-07-06T01:56:01;1.80;;;0.90;;
59872;SDS011;50750;51.636;4.948;2022-07-06T01:58:27;3.10;;;1.00;;
59872;SDS011;50750;51.636;4.948;2022-07-06T02:00:54;1.90;;;1.00;;
59872;SDS011;50750;51.636;4.948;2022-07-06T02:03:21;1.60;;;0.90;;
59872;SDS011;50750;51.636;4.948;2022-07-06T02:05:47;1.90;;;0.90;;
59872;SDS011;50750;51.636;4.948;2022-07-06T02:08:15;2.20;;;1.00;;
59872;SDS011;50750;51.636;4.948;2022-07-06T02:10:41;1.90;;;0.90;;
59872;SDS011;50750;51.636;4.948;2022-07-06T02:13:08;1.90;;;0.90;;
59872;SDS011;50750;51.636;4.948;2022-07-06T02:15:34;1.60;;;0.90;;
59872;SDS011;50750;51.636;4.948;2022-07-06T02:18:01;3.10;;;1.00;;
59872;SDS011;50750;51.636;4.948;2022-07-06T02:20:27;2.50;;;0.90;;
59872;SDS011;50750;51.636;4.948;2022-07-06T02:22:54;2.00;;;0.90;;
59872;SDS011;50750;51.636;4.948;2022-07-06T02:25:21;1.90;;;0.80;;
59872;SDS011;50750;51.636;4.948;2022-07-06T02:27:47;2.30;;;1.00;;
59872;SDS011;50750;51.636;4.948;2022-07-06T02:30:14;2.30;;;1.00;;
59872;SDS011;50750;51.636;4.948;2022-07-06T02:32:40;2.60;;;1.20;;
59872;SDS011;50750;51.636;4.948;2022-07-06T02:35:07;1.50;;;1.00;;
59872;SDS011;50750;51.636;4.948;2022-07-06T02:37:34;1.90;;;1.00;;
59872;SDS011;50750;51.636;4.948;2022-07-06T02:40:01;1.90;;;0.90;;
59872;SDS011;50750;51.636;4.948;2022-07-06T02:42:28;1.60;;;0.90;;
59872;SDS011;50750;51.636;4.948;2022-07-06T02:44:55;1.90;;;1.00;;
59872;SDS011;50750;51.636;4.948;2022-07-06T02:47:22;1.70;;;0.90;;
59872;SDS011;50750;51.636;4.948;2022-07-06T02:49:48;2.00;;;1.00;;
59872;SDS011;50750;51.636;4.948;2022-07-06T02:52:15;2.00;;;1.10;;
59872;SDS011;50750;51.636;4.948;2022-07-06T02:54:41;2.10;;;1.00;;
59872;SDS011;50750;51.636;4.948;2022-07-06T02:57:08;1.70;;;0.90;;
59872;SDS011;50750;51.636;4.948;2022-07-06T02:59:34;1.70;;;0.90;;
59872;SDS011;50750;51.636;4.948;2022-07-06T03:02:03;1.90;;;1.10;;
59872;SDS011;50750;51.636;4.948;2022-07-06T03:04:30;1.90;;;0.90;;
59872;SDS011;50750;51.636;4.948;2022-07-06T03:06:57;1.70;;;0.90;;
59872;SDS011;50750;51.636;4.948;2022-07-06T03:09:24;2.00;;;0.80;;
59872;SDS011;50750;51.636;4.948;2022-07-06T03:11:51;2.50;;;1.00;;
59872;SDS011;50750;51.636;4.948;2022-07-06T03:14:17;1.80;;;1.00;;
59872;SDS011;50750;51.636;4.948;2022-07-06T03:16:44;2.30;;;1.00;;
59872;SDS011;50750;51.636;4.948;2022-07-06T03:19:11;1.70;;;0.90;;
59872;SDS011;50750;51.636;4.948;2022-07-06T03:21:38;1.70;;;0.90;;
59872;SDS011;50750;51.636;4.948;2022-07-06T03:24:04;1.90;;;1.00;;
59872;SDS011;50750;51.636;4.948;2022-07-06T03:26:31;2.40;;;1.00;;
59872;SDS011;50750;51.636;4.948;2022-07-06T03:28:57;2.60;;;1.30;;
59872;SDS011;50750;51.636;4.948;2022-07-06T03:31:24;1.70;;;0.80;;
59872;SDS011;50750;51.636;4.948;2022-07-06T03:33:51;2.00;;;1.00;;
59872;SDS011;50750;51.636;4.948;2022-07-06T03:36:18;3.00;;;1.10;;
59872;SDS011;50750;51.636;4.948;2022-07-06T03:38:44;2.70;;;0.90;;
59872;SDS011;50750;51.636;4.948;2022-07-06T03:41:11;2.20;;;0.90;;
59872;SDS011;50750;51.636;4.948;2022-07-06T03:43:37;2.20;;;1.00;;
59872;SDS011;50750;51.636;4.948;2022-07-06T03:46:04;2.00;;;1.00;;
59872;SDS011;50750;51.636;4.948;2022-07-06T03:48:30;2.20;;;1.00;;
59872;SDS011;50750;51.636;4.948;2022-07-06T03:50:57;2.00;;;1.00;;
59872;SDS011;50750;51.636;4.948;2022-07-06T03:53:24;1.80;;;0.70;;
59872;SDS011;50750;51.636;4.948;2022-07-06T03:55:50;1.40;;;0.90;;
59872;SDS011;50750;51.636;4.948;2022-07-06T03:58:36;2.10;;;1.00;;
59872;SDS011;50750;51.636;4.948;2022-07-06T04:01:02;1.80;;;0.90;;
59872;SDS011;50750;51.636;4.948;2022-07-06T04:03:29;2.30;;;1.20;;
59872;SDS011;50750;51.636;4.948;2022-07-06T04:05:55;2.60;;;1.00;;
59872;SDS011;50750;51.636;4.948;2022-07-06T04:08:22;1.50;;;0.90;;
59872;SDS011;50750;51.636;4.948;2022-07-06T04:10:48;2.10;;;1.10;;
59872;SDS011;50750;51.636;4.948;2022-07-06T04:13:14;1.90;;;1.00;;
59872;SDS011;50750;51.636;4.948;2022-07-06T04:15:41;2.10;;;1.00;;
59872;SDS011;50750;51.636;4.948;2022-07-06T04:18:08;1.80;;;0.90;;
59872;SDS011;50750;51.636;4.948;2022-07-06T04:20:34;2.10;;;0.90;;
59872;SDS011;50750;51.636;4.948;2022-07-06T04:23:01;2.00;;;1.00;;
59872;SDS011;50750;51.636;4.948;2022-07-06T04:25:27;1.50;;;0.80;;
59872;SDS011;50750;51.636;4.948;2022-07-06T04:27:54;1.50;;;0.80;;
59872;SDS011;50750;51.636;4.948;2022-07-06T04:30:20;1.70;;;0.90;;
59872;SDS011;50750;51.636;4.948;2022-07-06T04:32:48;1.90;;;0.90;;
59872;SDS011;50750;51.636;4.948;2022-07-06T04:35:15;2.40;;;1.00;;
59872;SDS011;50750;51.636;4.948;2022-07-06T04:37:41;1.80;;;1.00;;
59872;SDS011;50750;51.636;4.948;2022-07-06T04:40:08;1.70;;;1.00;;
59872;SDS011;50750;51.636;4.948;2022-07-06T04:42:36;2.10;;;1.10;;
59872;SDS011;50750;51.636;4.948;2022-07-06T04:45:03;1.90;;;1.00;;
59872;SDS011;50750;51.636;4.948;2022-07-06T04:47:31;1.60;;;0.90;;
59872;SDS011;50750;51.636;4.948;2022-07-06T04:49:57;1.90;;;0.90;;
59872;SDS011;50750;51.636;4.948;2022-07-06T04:52:24;2.80;;;1.10;;
59872;SDS011;50750;51.636;4.948;2022-07-06T04:54:50;2.80;;;1.00;;
59872;SDS011;50750;51.636;4.948;2022-07-06T04:57:17;1.90;;;1.00;;
59872;SDS011;50750;51.636;4.948;2022-07-06T04:59:43;1.90;;;0.90;;
59872;SDS011;50750;51.636;4.948;2022-07-06T05:02:10;2.30;;;1.00;;
59872;SDS011;50750;51.636;4.948;2022-07-06T05:04:37;1.70;;;0.90;;
59872;SDS011;50750;51.636;4.948;2022-07-06T05:07:03;2.00;;;0.90;;
59872;SDS011;50750;51.636;4.948;2022-07-06T05:09:31;1.90;;;1.00;;
59872;SDS011;50750;51.636;4.948;2022-07-06T05:11:57;1.90;;;0.80;;
59872;SDS011;50750;51.636;4.948;2022-07-06T05:14:24;1.70;;;0.80;;
59872;SDS011;50750;51.636;4.948;2022-07-06T05:16:50;1.80;;;0.90;;
59872;SDS011;50750;51.636;4.948;2022-07-06T05:19:17;2.10;;;0.90;;
59872;SDS011;50750;51.636;4.948;2022-07-06T05:21:43;1.90;;;0.90;;
59872;SDS011;50750;51.636;4.948;2022-07-06T05:24:10;2.20;;;0.90;;
59872;SDS011;50750;51.636;4.948;2022-07-06T05:26:37;1.90;;;0.90;;
59872;SDS011;50750;51.636;4.948;2022-07-06T05:29:03;1.90;;;1.00;;
59872;SDS011;50750;51.636;4.948;2022-07-06T05:31:30;1.80;;;0.90;;
59872;SDS011;50750;51.636;4.948;2022-07-06T05:33:56;2.00;;;1.00;;
59872;SDS011;50750;51.636;4.948;2022-07-06T05:36:23;1.70;;;0.90;;
59872;SDS011;50750;51.636;4.948;2022-07-06T05:38:50;2.10;;;1.10;;
59872;SDS011;50750;51.636;4.948;2022-07-06T05:41:16;2.50;;;0.90;;
59872;SDS011;50750;51.636;4.948;2022-07-06T05:43:43;1.90;;;1.00;;
59872;SDS011;50750;51.636;4.948;2022-07-06T05:46:09;1.20;;;0.80;;
59872;SDS011;50750;51.636;4.948;2022-07-06T05:48:36;1.90;;;0.90;;
59872;SDS011;50750;51.636;4.948;2022-07-06T05:51:21;1.90;;;1.00;;
59872;SDS011;50750;51.636;4.948;2022-07-06T05:53:47;1.40;;;0.80;;
59872;SDS011;50750;51.636;4.948;2022-07-06T05:56:14;2.00;;;0.80;;
59872;SDS011;50750;51.636;4.948;2022-07-06T05:58:40;1.70;;;0.90;;
59872;SDS011;50750;51.636;4.948;2022-07-06T06:01:07;1.30;;;0.70;;
59872;SDS011;50750;51.636;4.948;2022-07-06T06:03:35;2.90;;;0.90;;
59872;SDS011;50750;51.636;4.948;2022-07-06T06:06:01;1.60;;;0.80;;
59872;SDS011;50750;51.636;4.948;2022-07-06T06:08:28;1.30;;;0.70;;
59872;SDS011;50750;51.636;4.948;2022-07-06T06:10:55;1.80;;;0.80;;
59872;SDS011;50750;51.636;4.948;2022-07-06T06:13:22;1.80;;;0.90;;
59872;SDS011;50750;51.636;4.948;2022-07-06T06:15:49;2.00;;;0.90;;
59872;SDS011;50750;51.636;4.948;2022-07-06T06:18:15;1.10;;;0.70;;
59872;SDS011;50750;51.636;4.948;2022-07-06T06:20:45;1.90;;;0.90;;
59872;SDS011;50750;51.636;4.948;2022-07-06T06:23:12;1.60;;;0.70;;
59872;SDS011;50750;51.636;4.948;2022-07-06T06:25:39;1.40;;;0.70;;
59872;SDS011;50750;51.636;4.948;2022-07-06T06:28:07;1.30;;;0.80;;
59872;SDS011;50750;51.636;4.948;2022-07-06T06:30:35;1.90;;;0.80;;
59872;SDS011;50750;51.636;4.948;2022-07-06T06:35:33;1.50;;;0.80;;
59872;SDS011;50750;51.636;4.948;2022-07-06T06:38:00;1.60;;;0.80;;
59872;SDS011;50750;51.636;4.948;2022-07-06T06:40:27;2.10;;;0.90;;
59872;SDS011;50750;51.636;4.948;2022-07-06T06:42:53;1.70;;;0.80;;
59872;SDS011;50750;51.636;4.948;2022-07-06T06:45:19;1.60;;;0.80;;
59872;SDS011;50750;51.636;4.948;2022-07-06T06:47:46;1.60;;;0.80;;
59872;SDS011;50750;51.636;4.948;2022-07-06T06:50:12;1.90;;;0.90;;
59872;SDS011;50750;51.636;4.948;2022-07-06T06:52:39;1.70;;;0.80;;
59872;SDS011;50750;51.636;4.948;2022-07-06T06:55:06;2.10;;;0.70;;
59872;SDS011;50750;51.636;4.948;2022-07-06T06:57:33;2.30;;;0.80;;
59872;SDS011;50750;51.636;4.948;2022-07-06T06:59:59;1.30;;;0.80;;
59872;SDS011;50750;51.636;4.948;2022-07-06T07:02:26;1.90;;;0.80;;
59872;SDS011;50750;51.636;4.948;2022-07-06T07:04:52;2.00;;;0.80;;
59872;SDS011;50750;51.636;4.948;2022-07-06T07:07:19;2.50;;;0.90;;
59872;SDS011;50750;51.636;4.948;2022-07-06T07:09:45;1.50;;;0.60;;
59872;SDS011;50750;51.636;4.948;2022-07-06T07:12:12;1.90;;;0.70;;
59872;SDS011;50750;51.636;4.948;2022-07-06T07:14:41;1.10;;;0.60;;
59872;SDS011;50750;51.636;4.948;2022-07-06T07:17:07;2.90;;;0.80;;
59872;SDS011;50750;51.636;4.948;2022-07-06T07:19:34;1.90;;;0.80;;
59872;SDS011;50750;51.636;4.948;2022-07-06T07:22:01;2.10;;;0.80;;
59872;SDS011;50750;51.636;4.948;2022-07-06T07:24:27;2.20;;;0.80;;
59872;SDS011;50750;51.636;4.948;2022-07-06T07:26:54;1.50;;;0.70;;
59872;SDS011;50750;51.636;4.948;2022-07-06T07:29:21;1.90;;;0.70;;
59872;SDS011;50750;51.636;4.948;2022-07-06T07:31:47;1.70;;;0.70;;
59872;SDS011;50750;51.636;4.948;2022-07-06T07:34:14;1.90;;;0.60;;
59872;SDS011;50750;51.636;4.948;2022-07-06T07:36:40;1.30;;;0.60;;
59872;SDS011;50750;51.636;4.948;2022-07-06T07:39:06;2.10;;;0.70;;
59872;SDS011;50750;51.636;4.948;2022-07-06T07:41:33;2.00;;;0.70;;
59872;SDS011;50750;51.636;4.948;2022-07-06T07:44:00;1.90;;;0.90;;
59872;SDS011;50750;51.636;4.948;2022-07-06T07:46:26;2.10;;;0.90;;
59872;SDS011;50750;51.636;4.948;2022-07-06T07:48:53;2.30;;;0.60;;
59872;SDS011;50750;51.636;4.948;2022-07-06T07:51:19;1.50;;;0.70;;
59872;SDS011;50750;51.636;4.948;2022-07-06T07:53:46;1.70;;;0.70;;
59872;SDS011;50750;51.636;4.948;2022-07-06T07:56:13;1.40;;;0.60;;
59872;SDS011;50750;51.636;4.948;2022-07-06T07:58:39;1.70;;;0.70;;
59872;SDS011;50750;51.636;4.948;2022-07-06T08:01:06;1.30;;;0.50;;
59872;SDS011;50750;51.636;4.948;2022-07-06T08:03:32;1.50;;;0.60;;
59872;SDS011;50750;51.636;4.948;2022-07-06T08:05:59;1.10;;;0.70;;
59872;SDS011;50750;51.636;4.948;2022-07-06T08:08:25;1.70;;;0.60;;
59872;SDS011;50750;51.636;4.948;2022-07-06T08:10:52;1.80;;;0.70;;
59872;SDS011;50750;51.636;4.948;2022-07-06T08:13:19;1.20;;;0.60;;
59872;SDS011;50750;51.636;4.948;2022-07-06T08:15:46;3.00;;;0.80;;
59872;SDS011;50750;51.636;4.948;2022-07-06T08:18:12;1.80;;;0.50;;
59872;SDS011;50750;51.636;4.948;2022-07-06T08:20:39;1.60;;;0.60;;
59872;SDS011;50750;51.636;4.948;2022-07-06T08:23:05;2.10;;;0.70;;
59872;SDS011;50750;51.636;4.948;2022-07-06T08:25:32;1.30;;;0.70;;
59872;SDS011;50750;51.636;4.948;2022-07-06T08:27:58;1.20;;;0.50;;
59872;SDS011;50750;51.636;4.948;2022-07-06T08:30:25;1.90;;;0.70;;
59872;SDS011;50750;51.636;4.948;2022-07-06T08:32:51;0.90;;;0.50;;
59872;SDS011;50750;51.636;4.948;2022-07-06T08:35:18;1.10;;;0.60;;
59872;SDS011;50750;51.636;4.948;2022-07-06T08:37:45;1.80;;;0.90;;
59872;SDS011;50750;51.636;4.948;2022-07-06T08:40:11;1.20;;;0.60;;
59872;SDS011;50750;51.636;4.948;2022-07-06T08:42:38;1.00;;;0.50;;
59872;SDS011;50750;51.636;4.948;2022-07-06T08:45:06;1.30;;;0.60;;
59872;SDS011;50750;51.636;4.948;2022-07-06T08:47:35;1.60;;;0.70;;
59872;SDS011;50750;51.636;4.948;2022-07-06T08:50:03;1.20;;;0.50;;
59872;SDS011;50750;51.636;4.948;2022-07-06T08:52:30;1.40;;;0.70;;
59872;SDS011;50750;51.636;4.948;2022-07-06T08:54:57;1.60;;;0.70;;
59872;SDS011;50750;51.636;4.948;2022-07-06T08:57:25;2.00;;;0.70;;
59872;SDS011;50750;51.636;4.948;2022-07-06T08:59:52;0.80;;;0.50;;
59872;SDS011;50750;51.636;4.948;2022-07-06T09:02:19;1.20;;;0.50;;
59872;SDS011;50750;51.636;4.948;2022-07-06T09:04:49;0.90;;;0.50;;
59872;SDS011;50750;51.636;4.948;2022-07-06T09:07:21;0.60;;;0.40;;
59872;SDS011;50750;51.636;4.948;2022-07-06T09:09:48;1.10;;;0.50;;
59872;SDS011;50750;51.636;4.948;2022-07-06T09:12:16;1.40;;;0.60;;
59872;SDS011;50750;51.636;4.948;2022-07-06T09:14:42;1.10;;;0.60;;
59872;SDS011;50750;51.636;4.948;2022-07-06T09:17:09;1.10;;;0.50;;
59872;SDS011;50750;51.636;4.948;2022-07-06T09:19:35;1.20;;;0.60;;
59872;SDS011;50750;51.636;4.948;2022-07-06T09:22:02;1.20;;;0.60;;
59872;SDS011;50750;51.636;4.948;2022-07-06T09:24:30;1.40;;;0.50;;
59872;SDS011;50750;51.636;4.948;2022-07-06T09:26:58;1.10;;;0.60;;
59872;SDS011;50750;51.636;4.948;2022-07-06T09:29:28;1.30;;;0.60;;
59872;SDS011;50750;51.636;4.948;2022-07-06T09:32:00;1.20;;;0.50;;
59872;SDS011;50750;51.636;4.948;2022-07-06T09:34:40;2.00;;;0.70;;
59872;SDS011;50750;51.636;4.948;2022-07-06T09:37:11;1.20;;;0.60;;
59872;SDS011;50750;51.636;4.948;2022-07-06T09:39:38;1.70;;;0.60;;
59872;SDS011;50750;51.636;4.948;2022-07-06T09:42:06;1.30;;;0.40;;
59872;SDS011;50750;51.636;4.948;2022-07-06T09:44:37;1.10;;;0.60;;
59872;SDS011;50750;51.636;4.948;2022-07-06T09:47:06;1.00;;;0.40;;
59872;SDS011;50750;51.636;4.948;2022-07-06T09:49:35;1.40;;;0.60;;
59872;SDS011;50750;51.636;4.948;2022-07-06T09:52:06;2.40;;;0.70;;
59872;SDS011;50750;51.636;4.948;2022-07-06T09:54:35;1.20;;;0.50;;
59872;SDS011;50750;51.636;4.948;2022-07-06T09:57:05;1.10;;;0.60;;
59872;SDS011;50750;51.636;4.948;2022-07-06T09:59:33;1.00;;;0.60;;
59872;SDS011;50750;51.636;4.948;2022-07-06T10:02:04;1.70;;;0.60;;
59872;SDS011;50750;51.636;4.948;2022-07-06T10:04:33;1.40;;;0.50;;
59872;SDS011;50750;51.636;4.948;2022-07-06T10:07:00;1.10;;;0.50;;
59872;SDS011;50750;51.636;4.948;2022-07-06T10:09:28;1.40;;;0.50;;
59872;SDS011;50750;51.636;4.948;2022-07-06T10:11:57;1.50;;;0.60;;
59872;SDS011;50750;51.636;4.948;2022-07-06T10:14:27;1.20;;;0.60;;
59872;SDS011;50750;51.636;4.948;2022-07-06T10:16:56;0.80;;;0.40;;
59872;SDS011;50750;51.636;4.948;2022-07-06T10:19:24;1.80;;;0.70;;
59872;SDS011;50750;51.636;4.948;2022-07-06T10:21:53;1.80;;;0.80;;
59872;SDS011;50750;51.636;4.948;2022-07-06T10:24:20;0.80;;;0.50;;
59872;SDS011;50750;51.636;4.948;2022-07-06T10:26:47;1.30;;;0.60;;
59872;SDS011;50750;51.636;4.948;2022-07-06T10:29:15;1.90;;;0.60;;
59872;SDS011;50750;51.636;4.948;2022-07-06T10:31:45;1.20;;;0.50;;
59872;SDS011;50750;51.636;4.948;2022-07-06T10:34:15;1.60;;;0.60;;
59872;SDS011;50750;51.636;4.948;2022-07-06T10:36:44;1.50;;;0.50;;
59872;SDS011;50750;51.636;4.948;2022-07-06T10:39:15;1.50;;;0.60;;
59872;SDS011;50750;51.636;4.948;2022-07-06T10:42:00;2.40;;;0.80;;
59872;SDS011;50750;51.636;4.948;2022-07-06T10:44:27;1.60;;;0.60;;
59872;SDS011;50750;51.636;4.948;2022-07-06T10:46:57;1.30;;;0.60;;
59872;SDS011;50750;51.636;4.948;2022-07-06T10:49:25;0.70;;;0.40;;
59872;SDS011;50750;51.636;4.948;2022-07-06T10:51:53;1.70;;;0.70;;
59872;SDS011;50750;51.636;4.948;2022-07-06T10:54:22;0.70;;;0.40;;
59872;SDS011;50750;51.636;4.948;2022-07-06T10:56:50;1.00;;;0.40;;
59872;SDS011;50750;51.636;4.948;2022-07-06T10:59:19;1.00;;;0.60;;
59872;SDS011;50750;51.636;4.948;2022-07-06T11:04:43;1.50;;;0.60;;
59872;SDS011;50750;51.636;4.948;2022-07-06T11:07:12;0.70;;;0.50;;
59872;SDS011;50750;51.636;4.948;2022-07-06T11:09:41;0.40;;;0.40;;
59872;SDS011;50750;51.636;4.948;2022-07-06T11:12:20;1.70;;;0.60;;
59872;SDS011;50750;51.636;4.948;2022-07-06T11:14:48;1.50;;;0.60;;
59872;SDS011;50750;51.636;4.948;2022-07-06T11:17:16;2.50;;;0.60;;
59872;SDS011;50750;51.636;4.948;2022-07-06T11:20:08;1.70;;;0.50;;
59872;SDS011;50750;51.636;4.948;2022-07-06T11:22:39;0.90;;;0.60;;
59872;SDS011;50750;51.636;4.948;2022-07-06T11:25:05;1.00;;;0.60;;
59872;SDS011;50750;51.636;4.948;2022-07-06T11:27:35;1.20;;;0.50;;
59872;SDS011;50750;51.636;4.948;2022-07-06T11:30:04;1.60;;;0.60;;
59872;SDS011;50750;51.636;4.948;2022-07-06T11:32:33;1.20;;;0.50;;
59872;SDS011;50750;51.636;4.948;2022-07-06T11:35:01;0.80;;;0.60;;
59872;SDS011;50750;51.636;4.948;2022-07-06T11:37:28;1.70;;;0.60;;
59872;SDS011;50750;51.636;4.948;2022-07-06T11:39:54;0.90;;;0.50;;
59872;SDS011;50750;51.636;4.948;2022-07-06T11:42:21;1.00;;;0.50;;
59872;SDS011;50750;51.636;4.948;2022-07-06T11:44:47;1.10;;;0.60;;
59872;SDS011;50750;51.636;4.948;2022-07-06T11:47:16;1.30;;;0.60;;
59872;SDS011;50750;51.636;4.948;2022-07-06T11:49:42;1.60;;;0.50;;
59872;SDS011;50750;51.636;4.948;2022-07-06T11:52:12;1.40;;;0.70;;
59872;SDS011;50750;51.636;4.948;2022-07-06T11:54:39;2.00;;;0.60;;
59872;SDS011;50750;51.636;4.948;2022-07-06T11:57:08;1.30;;;0.50;;
59872;SDS011;50750;51.636;4.948;2022-07-06T11:59:36;1.50;;;0.50;;
59872;SDS011;50750;51.636;4.948;2022-07-06T12:02:08;1.60;;;0.60;;
59872;SDS011;50750;51.636;4.948;2022-07-06T12:04:37;1.10;;;0.50;;
59872;SDS011;50750;51.636;4.948;2022-07-06T12:07:05;0.80;;;0.50;;
59872;SDS011;50750;51.636;4.948;2022-07-06T12:12:02;0.80;;;0.50;;
59872;SDS011;50750;51.636;4.948;2022-07-06T12:14:30;0.80;;;0.50;;
59872;SDS011;50750;51.636;4.948;2022-07-06T12:17:06;1.10;;;0.50;;
59872;SDS011;50750;51.636;4.948;2022-07-06T12:19:35;1.00;;;0.50;;
59872;SDS011;50750;51.636;4.948;2022-07-06T12:22:03;1.50;;;0.50;;
59872;SDS011;50750;51.636;4.948;2022-07-06T12:24:31;1.70;;;0.60;;
59872;SDS011;50750;51.636;4.948;2022-07-06T12:27:09;1.00;;;0.60;;
59872;SDS011;50750;51.636;4.948;2022-07-06T12:29:39;0.50;;;0.40;;
59872;SDS011;50750;51.636;4.948;2022-07-06T12:32:13;1.70;;;0.60;;
59872;SDS011;50750;51.636;4.948;2022-07-06T12:34:44;0.90;;;0.60;;
59872;SDS011;50750;51.636;4.948;2022-07-06T12:37:11;1.20;;;0.50;;
59872;SDS011;50750;51.636;4.948;2022-07-06T12:42:08;1.60;;;0.50;;
59872;SDS011;50750;51.636;4.948;2022-07-06T12:44:41;1.30;;;0.50;;
59872;SDS011;50750;51.636;4.948;2022-07-06T12:47:12;0.80;;;0.50;;
59872;SDS011;50750;51.636;4.948;2022-07-06T12:49:43;0.80;;;0.50;;
59872;SDS011;50750;51.636;4.948;2022-07-06T12:52:14;1.80;;;0.50;;
59872;SDS011;50750;51.636;4.948;2022-07-06T12:54:42;0.80;;;0.50;;
59872;SDS011;50750;51.636;4.948;2022-07-06T12:57:15;1.80;;;0.70;;
59872;SDS011;50750;51.636;4.948;2022-07-06T12:59:45;0.80;;;0.50;;
59872;SDS011;50750;51.636;4.948;2022-07-06T13:02:18;1.50;;;0.70;;
59872;SDS011;50750;51.636;4.948;2022-07-06T13:05:22;1.10;;;0.60;;
59872;SDS011;50750;51.636;4.948;2022-07-06T13:07:46;1.20;;;0.50;;
59872;SDS011;50750;51.636;4.948;2022-07-06T13:10:15;0.70;;;0.40;;
59872;SDS011;50750;51.636;4.948;2022-07-06T13:12:42;0.90;;;0.50;;
59872;SDS011;50750;51.636;4.948;2022-07-06T13:15:09;1.30;;;0.50;;
59872;SDS011;50750;51.636;4.948;2022-07-06T13:17:36;1.30;;;0.60;;
59872;SDS011;50750;51.636;4.948;2022-07-06T13:20:04;1.40;;;0.60;;
59872;SDS011;50750;51.636;4.948;2022-07-06T13:22:34;2.40;;;0.60;;
59872;SDS011;50750;51.636;4.948;2022-07-06T13:25:02;2.30;;;0.60;;
59872;SDS011;50750;51.636;4.948;2022-07-06T13:27:29;1.00;;;0.50;;
59872;SDS011;50750;51.636;4.948;2022-07-06T13:29:56;1.40;;;0.60;;
59872;SDS011;50750;51.636;4.948;2022-07-06T13:32:22;2.00;;;0.70;;
59872;SDS011;50750;51.636;4.948;2022-07-06T13:34:49;1.60;;;0.50;;
59872;SDS011;50750;51.636;4.948;2022-07-06T13:37:16;1.50;;;0.60;;
59872;SDS011;50750;51.636;4.948;2022-07-06T13:39:43;1.70;;;0.60;;
59872;SDS011;50750;51.636;4.948;2022-07-06T13:42:09;2.20;;;0.70;;
59872;SDS011;50750;51.636;4.948;2022-07-06T13:44:36;0.80;;;0.40;;
59872;SDS011;50750;51.636;4.948;2022-07-06T13:47:03;1.40;;;0.60;;
59872;SDS011;50750;51.636;4.948;2022-07-06T13:49:30;1.50;;;0.60;;
59872;SDS011;50750;51.636;4.948;2022-07-06T13:51:57;1.40;;;0.60;;
59872;SDS011;50750;51.636;4.948;2022-07-06T13:54:29;1.60;;;0.70;;
59872;SDS011;50750;51.636;4.948;2022-07-06T13:56:56;1.40;;;0.50;;
59872;SDS011;50750;51.636;4.948;2022-07-06T13:59:23;1.40;;;0.60;;
59872;SDS011;50750;51.636;4.948;2022-07-06T14:01:50;1.20;;;0.60;;
59872;SDS011;50750;51.636;4.948;2022-07-06T14:04:17;4.60;;;1.00;;
59872;SDS011;50750;51.636;4.948;2022-07-06T14:06:43;4.50;;;1.00;;
59872;SDS011;50750;51.636;4.948;2022-07-06T14:09:10;14.30;;;1.40;;
59872;SDS011;50750;51.636;4.948;2022-07-06T14:11:37;5.60;;;1.10;;
59872;SDS011;50750;51.636;4.948;2022-07-06T14:14:04;5.60;;;1.10;;
59872;SDS011;50750;51.636;4.948;2022-07-06T14:16:33;2.40;;;0.90;;
59872;SDS011;50750;51.636;4.948;2022-07-06T14:19:01;4.80;;;1.10;;
59872;SDS011;50750;51.636;4.948;2022-07-06T14:21:28;4.50;;;1.00;;
59872;SDS011;50750;51.636;4.948;2022-07-06T14:23:55;3.30;;;1.00;;
59872;SDS011;50750;51.636;4.948;2022-07-06T14:26:21;2.70;;;0.90;;
59872;SDS011;50750;51.636;4.948;2022-07-06T14:28:48;3.50;;;1.00;;
59872;SDS011;50750;51.636;4.948;2022-07-06T14:31:15;3.10;;;1.10;;
59872;SDS011;50750;51.636;4.948;2022-07-06T14:33:42;7.40;;;1.00;;
59872;SDS011;50750;51.636;4.948;2022-07-06T14:36:08;2.40;;;1.00;;
59872;SDS011;50750;51.636;4.948;2022-07-06T14:38:35;4.60;;;0.90;;
59872;SDS011;50750;51.636;4.948;2022-07-06T14:41:01;4.70;;;1.00;;
59872;SDS011;50750;51.636;4.948;2022-07-06T14:43:28;3.10;;;0.90;;
59872;SDS011;50750;51.636;4.948;2022-07-06T14:45:55;2.60;;;0.80;;
59872;SDS011;50750;51.636;4.948;2022-07-06T14:48:21;3.80;;;1.00;;
59872;SDS011;50750;51.636;4.948;2022-07-06T14:50:48;2.70;;;0.90;;
59872;SDS011;50750;51.636;4.948;2022-07-06T14:53:14;2.80;;;1.00;;
59872;SDS011;50750;51.636;4.948;2022-07-06T14:55:41;3.20;;;1.10;;
59872;SDS011;50750;51.636;4.948;2022-07-06T14:58:07;3.30;;;1.00;;
59872;SDS011;50750;51.636;4.948;2022-07-06T15:00:34;1.90;;;0.80;;